Quesnel, British Columbia

1:00 PM PST on March 01, 2015 (GMT -0800)
Quesnel | Change Station
CLOSE
Current Station
Airport
Location: Quesnel,
Elevation: 1788 ft
Nearby Weather Stations

Elev 1788 ft 53.03 °N, 122.51 °W | Updated 1 hour ago

Partly Cloudy
Partly Cloudy
36 °F
Feels Like 29 °F
N
9
Wind Variable Wind from SSE

Today is forecast to be nearly the same temperature as yesterday.

Today
High -- | Low -- °F
--% Chance of Precip.
Yesterday
High -- | Low -- °F
Precip. -- in
6:57 AM 5:48 PM
Waxing Gibbous, 87% visible
Pressure 30.12 in
Visibility 9.0 miles
Clouds Few 9500 ft
Windchill 29 °F
Dew Point 18 °F
Humidity 48%
Rainfall 0.00 in
Snow Depth Not available.
UV 3 out of 12
Pollen Not available.
Air Quality Not available.
Flu Activity Not available.
METAR CYQZ 012000Z AUTO 16008KT 9SM FEW095 02/M08 A3004 RMK SLP199

More Conditions Fewer Conditions

Pressure 30.12 in
Visibility 9.0 miles
Clouds Few 9500 ft
Windchill 29 °F
Dew Point 18 °F
Humidity 48%
Rainfall 0.00 in
Snow Depth Not available.
UV 3 out of 12
Pollen Not available.
Air Quality Not available.
Flu Activity Not available.
METAR CYQZ 012000Z AUTO 16008KT 9SM FEW095 02/M08 A3004 RMK SLP199

More Conditions Fewer Conditions

10-Day Weather Forecast

Almanac

Astronomy

Mar. 01, 2015 Rise Set
Actual Time
Civil Twilight
Nautical Twilight
Astronomical Twilight
Moon
Length of Visible Light
Length of Day
Tomorrow will be .
, % of the Moon is Illuminated

Today's Extremes

Country Highs Country Lows

Community

WunderPhotos

Upload Photos

1,801,559 photos uploaded!

WunderBlogs® & News

Nearby

Air Quality

  Air Quality AQ Index Pollutant
Not available.

Snow Depth

Station Depth Elevation

Earthquake Activity

City Distance Mag. Time & Date
Minimum magnitude displayed is 2.5.

Coastal Water Temperatures

Place Temperature

Nearby Weather Stations